createdAt,value
2022-12-07T00:01:41.765Z,2.00
2022-12-07T00:04:12.233Z,2.00
2022-12-07T00:06:44.470Z,1.90
2022-12-07T00:09:14.147Z,1.90
2022-12-07T00:11:41.217Z,1.90
2022-12-07T00:14:11.786Z,1.80
2022-12-07T00:16:38.736Z,1.80
2022-12-07T00:19:06.272Z,1.70
2022-12-07T00:21:35.722Z,1.60
2022-12-07T00:24:04.255Z,1.60
2022-12-07T00:26:36.626Z,1.60
2022-12-07T00:29:14.579Z,1.60
2022-12-07T00:31:41.558Z,1.60
2022-12-07T00:34:14.317Z,1.60
2022-12-07T00:36:41.088Z,1.60
2022-12-07T00:39:08.057Z,1.70
2022-12-07T00:41:34.921Z,1.80
2022-12-07T00:44:01.736Z,1.90
2022-12-07T00:46:28.728Z,1.90
2022-12-07T00:48:55.726Z,2.20
2022-12-07T00:51:24.641Z,2.00
2022-12-07T00:53:51.816Z,2.00
2022-12-07T00:56:24.844Z,2.10
2022-12-07T00:58:56.996Z,2.10
2022-12-07T01:01:25.368Z,2.10
2022-12-07T01:03:52.332Z,2.20
2022-12-07T01:06:21.191Z,2.20
2022-12-07T01:08:48.247Z,2.20
2022-12-07T01:11:17.538Z,2.20
2022-12-07T01:13:44.986Z,2.30
2022-12-07T01:16:15.320Z,2.30
2022-12-07T01:18:42.633Z,2.50
2022-12-07T01:21:13.336Z,2.40
2022-12-07T01:23:40.994Z,2.30
2022-12-07T01:26:12.890Z,2.30
2022-12-07T01:28:40.096Z,2.40
2022-12-07T01:31:12.873Z,2.40
2022-12-07T01:33:40.552Z,2.40
2022-12-07T01:36:15.664Z,2.50
2022-12-07T01:38:43.094Z,2.60
2022-12-07T01:41:10.098Z,2.70
2022-12-07T01:43:37.086Z,2.70
2022-12-07T01:46:05.299Z,2.80
2022-12-07T01:48:42.753Z,2.70
2022-12-07T01:51:13.088Z,2.60
2022-12-07T01:53:44.250Z,2.60
2022-12-07T01:56:16.052Z,2.70
2022-12-07T01:58:43.529Z,2.70
2022-12-07T02:01:10.373Z,2.80
2022-12-07T02:03:45.029Z,2.90
2022-12-07T02:06:16.796Z,2.80
2022-12-07T02:08:47.922Z,2.90
2022-12-07T02:11:15.032Z,2.80
2022-12-07T02:13:44.309Z,3.00
2022-12-07T02:16:32.885Z,2.90
2022-12-07T02:19:25.625Z,3.00
2022-12-07T02:22:10.296Z,3.00
2022-12-07T02:24:54.217Z,3.00
2022-12-07T02:27:40.763Z,3.10
2022-12-07T02:30:13.335Z,3.20
2022-12-07T02:32:57.529Z,3.10
2022-12-07T02:35:40.474Z,3.20
2022-12-07T02:38:21.655Z,3.20
2022-12-07T02:40:59.016Z,3.10
2022-12-07T02:43:32.630Z,3.00
2022-12-07T02:46:05.562Z,3.10
2022-12-07T02:48:34.672Z,3.20
2022-12-07T02:51:01.543Z,3.10
2022-12-07T02:53:38.107Z,3.10
2022-12-07T02:56:18.020Z,3.10
2022-12-07T02:58:51.688Z,3.10
2022-12-07T03:01:33.495Z,3.00
2022-12-07T03:04:29.707Z,3.00
2022-12-07T03:07:06.444Z,3.00
2022-12-07T03:09:52.686Z,3.00
2022-12-07T03:12:25.442Z,2.90
2022-12-07T03:15:13.903Z,2.90
2022-12-07T03:17:43.704Z,2.90
2022-12-07T03:20:16.788Z,2.90
2022-12-07T03:22:46.446Z,2.80
2022-12-07T03:25:16.557Z,2.80
2022-12-07T03:28:00.766Z,2.80
2022-12-07T03:30:43.180Z,2.80
2022-12-07T03:33:21.567Z,2.80
2022-12-07T03:35:54.081Z,2.80
2022-12-07T03:38:23.892Z,2.90
2022-12-07T03:40:56.784Z,2.90
2022-12-07T03:43:23.780Z,2.80
2022-12-07T03:46:23.738Z,2.70
2022-12-07T03:49:03.651Z,2.70
2022-12-07T03:51:40.017Z,2.70
2022-12-07T03:54:20.814Z,2.70
2022-12-07T03:56:48.479Z,2.60
2022-12-07T03:59:17.827Z,2.60
2022-12-07T04:01:45.998Z,2.50
2022-12-07T04:04:12.964Z,2.50
2022-12-07T04:06:39.789Z,2.50
2022-12-07T04:09:06.618Z,2.60
2022-12-07T04:11:33.418Z,2.50
2022-12-07T04:14:18.700Z,2.50
2022-12-07T04:16:46.213Z,2.40
2022-12-07T04:19:13.746Z,2.40
2022-12-07T04:21:41.017Z,2.40
2022-12-07T04:24:08.005Z,2.40
2022-12-07T04:26:34.940Z,2.30
2022-12-07T04:29:07.246Z,2.30
2022-12-07T04:31:34.935Z,2.30
2022-12-07T04:34:01.934Z,2.40
2022-12-07T04:36:28.820Z,2.30
2022-12-07T04:38:56.049Z,2.30
2022-12-07T04:41:27.969Z,2.20
2022-12-07T04:44:00.426Z,2.30
2022-12-07T04:46:28.857Z,2.30
2022-12-07T04:48:56.144Z,2.40
2022-12-07T04:51:26.231Z,2.40
2022-12-07T04:53:53.183Z,2.30
2022-12-07T04:56:20.280Z,2.30
2022-12-07T04:58:48.565Z,2.20
2022-12-07T05:01:16.749Z,2.20
2022-12-07T05:03:44.134Z,2.20
2022-12-07T05:06:13.573Z,2.10
2022-12-07T05:08:41.197Z,2.10
2022-12-07T05:11:09.371Z,2.10
2022-12-07T05:13:37.070Z,2.00
2022-12-07T05:16:04.315Z,2.00
2022-12-07T05:18:31.205Z,2.00
2022-12-07T05:20:57.997Z,2.00
2022-12-07T05:23:24.791Z,2.10
2022-12-07T05:25:51.887Z,1.90
2022-12-07T05:28:18.720Z,1.90
2022-12-07T05:30:45.535Z,1.90
2022-12-07T05:33:12.443Z,1.90
2022-12-07T05:35:39.902Z,1.90
2022-12-07T05:38:06.796Z,1.90
2022-12-07T05:40:33.678Z,1.80
2022-12-07T05:43:04.584Z,1.80
2022-12-07T05:45:32.113Z,1.70
2022-12-07T05:47:59.095Z,1.70
2022-12-07T05:50:26.192Z,1.70
2022-12-07T05:52:53.009Z,1.60
2022-12-07T05:55:20.193Z,1.70
2022-12-07T05:58:07.002Z,1.60
2022-12-07T06:00:34.242Z,1.60
2022-12-07T06:03:01.261Z,1.70
2022-12-07T06:05:28.194Z,1.70
2022-12-07T06:07:55.036Z,1.70
2022-12-07T06:10:21.970Z,1.70
2022-12-07T06:12:51.522Z,1.60
2022-12-07T06:15:18.353Z,1.50
2022-12-07T06:17:46.265Z,1.40
2022-12-07T06:20:13.311Z,1.70
2022-12-07T06:22:40.172Z,1.50
2022-12-07T06:25:08.891Z,1.40
2022-12-07T06:27:36.448Z,1.30
2022-12-07T06:30:07.384Z,1.30
2022-12-07T06:32:34.805Z,1.20
2022-12-07T06:35:02.001Z,1.20
2022-12-07T06:37:28.956Z,1.20
2022-12-07T06:39:55.952Z,1.10
2022-12-07T06:42:23.077Z,1.20
2022-12-07T06:44:50.087Z,1.20
2022-12-07T06:47:40.521Z,1.10
2022-12-07T06:50:04.505Z,1.10
2022-12-07T06:52:31.770Z,1.00
2022-12-07T06:54:59.694Z,1.00
2022-12-07T06:57:27.186Z,1.00
2022-12-07T06:59:53.990Z,1.20
2022-12-07T07:02:20.862Z,1.10
2022-12-07T07:04:47.708Z,1.00
2022-12-07T07:07:14.509Z,1.10
2022-12-07T07:09:42.363Z,1.00
2022-12-07T07:12:09.182Z,1.00
2022-12-07T07:14:36.092Z,1.00
2022-12-07T07:17:03.007Z,1.00
2022-12-07T07:19:30.104Z,1.00
2022-12-07T07:21:56.913Z,1.00
2022-12-07T07:24:23.721Z,0.90
2022-12-07T07:26:50.534Z,1.00
2022-12-07T07:29:17.381Z,1.10
2022-12-07T07:31:45.030Z,1.00
2022-12-07T07:34:12.306Z,0.90
2022-12-07T07:36:39.140Z,1.00
2022-12-07T07:39:06.105Z,1.10
2022-12-07T07:41:32.984Z,1.10
2022-12-07T07:43:59.780Z,0.90
2022-12-07T07:46:26.706Z,0.90
2022-12-07T07:48:53.519Z,1.00
2022-12-07T07:51:20.302Z,1.00
2022-12-07T07:53:47.577Z,1.00
2022-12-07T07:56:14.348Z,1.00
2022-12-07T07:58:41.163Z,1.00
2022-12-07T08:01:08.454Z,1.00
2022-12-07T08:03:36.349Z,1.00
2022-12-07T08:06:04.929Z,1.10
2022-12-07T08:08:34.849Z,1.10
2022-12-07T08:11:02.508Z,1.10
2022-12-07T08:13:31.689Z,1.20
2022-12-07T08:15:59.323Z,1.30
2022-12-07T08:18:26.168Z,1.30
2022-12-07T08:20:52.981Z,1.30
2022-12-07T08:23:19.770Z,1.30
2022-12-07T08:25:46.560Z,1.40
2022-12-07T08:28:13.425Z,1.40
2022-12-07T08:30:40.279Z,1.40
2022-12-07T08:33:07.122Z,1.40
2022-12-07T08:35:35.114Z,1.50
2022-12-07T08:38:03.169Z,1.50
2022-12-07T08:40:31.096Z,1.60
2022-12-07T08:42:57.982Z,1.70
2022-12-07T08:45:27.494Z,1.70
2022-12-07T08:48:07.144Z,1.70
2022-12-07T08:50:35.234Z,1.70
2022-12-07T08:53:03.580Z,1.80
2022-12-07T08:55:30.442Z,2.10
2022-12-07T08:57:59.547Z,2.00
2022-12-07T09:00:27.307Z,1.90
2022-12-07T09:02:55.510Z,2.00
2022-12-07T09:05:22.901Z,2.10
2022-12-07T09:07:53.667Z,2.10
2022-12-07T09:10:20.559Z,2.10
2022-12-07T09:12:47.404Z,2.10
2022-12-07T09:15:14.326Z,2.10
2022-12-07T09:17:41.274Z,2.10
2022-12-07T09:20:08.521Z,2.20
2022-12-07T09:22:35.367Z,2.10
2022-12-07T09:25:03.760Z,2.30
2022-12-07T09:27:31.069Z,2.40
2022-12-07T09:29:57.923Z,2.40
2022-12-07T09:32:25.372Z,2.40
2022-12-07T09:34:52.381Z,2.40
2022-12-07T09:37:19.343Z,2.50
2022-12-07T09:39:50.112Z,2.70
2022-12-07T09:42:38.103Z,2.60
2022-12-07T09:45:08.636Z,2.70
2022-12-07T09:47:35.527Z,2.80
2022-12-07T09:50:12.846Z,2.90
2022-12-07T09:52:39.989Z,2.90
2022-12-07T09:55:25.874Z,3.00
2022-12-07T09:57:54.138Z,3.00
2022-12-07T10:00:23.415Z,2.90
2022-12-07T10:02:58.041Z,2.90
2022-12-07T10:05:39.418Z,2.90
2022-12-07T10:08:08.754Z,2.90
2022-12-07T10:10:39.741Z,3.00
2022-12-07T10:13:07.845Z,3.20
2022-12-07T10:15:46.395Z,3.10
2022-12-07T10:18:28.343Z,3.10
2022-12-07T10:21:05.748Z,3.10
2022-12-07T10:23:32.593Z,3.20
2022-12-07T10:25:59.431Z,3.20
2022-12-07T10:28:41.915Z,3.20
2022-12-07T10:31:21.156Z,3.30
2022-12-07T10:33:57.661Z,3.40
2022-12-07T10:36:36.549Z,3.30
2022-12-07T10:39:19.362Z,3.20
2022-12-07T10:41:59.907Z,3.20
2022-12-07T10:44:35.377Z,3.30
2022-12-07T10:47:20.048Z,3.30
2022-12-07T10:50:17.853Z,3.40
2022-12-07T10:52:56.427Z,3.40
2022-12-07T10:55:35.610Z,3.40
2022-12-07T10:58:52.914Z,3.50
2022-12-07T11:01:42.935Z,3.50
2022-12-07T11:04:35.816Z,3.60
2022-12-07T11:07:15.156Z,3.60
2022-12-07T11:10:10.966Z,3.50
2022-12-07T11:13:05.400Z,3.60
2022-12-07T11:16:08.099Z,3.60
2022-12-07T11:18:41.037Z,3.70
2022-12-07T11:21:16.961Z,3.80
2022-12-07T11:24:19.525Z,3.90
2022-12-07T11:27:30.714Z,3.80
2022-12-07T11:30:08.223Z,4.00
2022-12-07T11:33:12.897Z,3.90
2022-12-07T11:36:19.512Z,3.90
2022-12-07T11:38:57.214Z,4.00
2022-12-07T11:41:43.850Z,3.90
2022-12-07T11:44:34.865Z,3.90
2022-12-07T11:47:13.370Z,3.80
2022-12-07T11:50:08.644Z,3.80
2022-12-07T11:52:49.233Z,3.90
2022-12-07T11:55:41.647Z,3.90
2022-12-07T11:58:34.289Z,3.90
2022-12-07T12:01:26.921Z,3.90
2022-12-07T12:03:55.246Z,3.80
2022-12-07T12:06:22.904Z,4.00
2022-12-07T12:15:17.362Z,4.10
2022-12-07T12:18:18.149Z,4.10
2022-12-07T12:21:07.624Z,4.00
2022-12-07T12:23:42.494Z,3.90
2022-12-07T12:26:20.910Z,4.00
2022-12-07T12:28:50.946Z,3.90
2022-12-07T12:31:23.823Z,3.80
2022-12-07T12:33:59.192Z,3.80
2022-12-07T12:36:33.921Z,3.80
2022-12-07T12:39:17.111Z,3.90
2022-12-07T12:41:46.845Z,3.80
2022-12-07T12:44:16.794Z,3.80
2022-12-07T12:46:50.173Z,3.90
2022-12-07T12:49:17.419Z,3.90
2022-12-07T12:51:56.439Z,3.60
2022-12-07T12:54:29.321Z,3.50
2022-12-07T12:57:26.499Z,3.50
2022-12-07T12:59:53.264Z,3.50
2022-12-07T13:02:38.557Z,3.50
2022-12-07T13:05:08.959Z,3.40
2022-12-07T13:07:47.865Z,3.50
2022-12-07T13:10:35.837Z,3.40
2022-12-07T13:13:25.339Z,3.30
2022-12-07T13:16:16.514Z,3.20
2022-12-07T13:18:43.669Z,3.30
2022-12-07T13:21:10.539Z,3.20
2022-12-07T13:23:46.626Z,3.10
2022-12-07T13:26:24.834Z,3.00
2022-12-07T13:29:12.227Z,2.80
2022-12-07T13:31:52.626Z,3.00
2022-12-07T13:34:42.657Z,2.90
2022-12-07T13:37:12.340Z,3.00
2022-12-07T13:39:48.005Z,2.90
2022-12-07T13:42:29.786Z,2.90
2022-12-07T13:44:59.025Z,2.80
2022-12-07T13:47:36.004Z,2.70
2022-12-07T13:50:03.033Z,2.80
2022-12-07T13:52:31.609Z,2.80
2022-12-07T13:55:07.454Z,2.70
2022-12-07T13:57:36.590Z,2.80
2022-12-07T14:00:16.055Z,2.80
2022-12-07T14:03:03.860Z,2.80
2022-12-07T14:05:32.565Z,2.70
2022-12-07T14:08:05.537Z,2.60
2022-12-07T14:10:38.252Z,2.40
2022-12-07T14:13:32.155Z,2.40
2022-12-07T14:15:59.704Z,2.30
2022-12-07T14:18:30.712Z,2.30
2022-12-07T14:21:10.869Z,2.30
2022-12-07T14:23:40.101Z,2.40
2022-12-07T14:26:14.028Z,2.30
2022-12-07T14:28:42.283Z,2.30
2022-12-07T14:31:22.709Z,2.30
2022-12-07T14:33:51.997Z,2.30
2022-12-07T14:36:18.799Z,2.20
2022-12-07T14:38:45.817Z,2.30
2022-12-07T14:41:37.109Z,2.20
2022-12-07T14:44:34.002Z,2.20
2022-12-07T14:49:46.638Z,2.10
2022-12-07T14:55:25.746Z,2.10
2022-12-07T14:57:53.060Z,2.00
2022-12-07T15:00:21.354Z,1.90
2022-12-07T15:02:48.814Z,2.00
2022-12-07T15:05:17.058Z,2.00
2022-12-07T15:07:45.480Z,2.00
2022-12-07T15:10:30.308Z,1.90
2022-12-07T15:13:20.848Z,1.80
2022-12-07T15:15:52.878Z,1.70
2022-12-07T15:18:21.279Z,1.70
2022-12-07T15:20:48.417Z,1.60
2022-12-07T15:23:16.251Z,1.70
2022-12-07T15:25:44.504Z,1.70
2022-12-07T15:28:11.354Z,1.60
2022-12-07T15:30:39.610Z,1.50
2022-12-07T15:33:06.655Z,1.40
2022-12-07T15:35:33.485Z,1.30
2022-12-07T15:38:00.271Z,1.30
2022-12-07T15:40:27.102Z,1.20
2022-12-07T15:42:53.939Z,1.20
2022-12-07T15:45:20.715Z,1.10
2022-12-07T15:48:26.335Z,1.10
2022-12-07T15:50:34.392Z,1.10
2022-12-07T15:53:01.207Z,1.10
2022-12-07T15:55:27.979Z,1.00
2022-12-07T15:57:54.819Z,1.00
2022-12-07T16:00:21.782Z,1.00
2022-12-07T16:02:48.776Z,1.00
2022-12-07T16:05:15.718Z,1.00
2022-12-07T16:07:42.663Z,1.00
2022-12-07T16:10:10.049Z,1.00
2022-12-07T16:12:36.974Z,1.00
2022-12-07T16:15:04.132Z,0.90
2022-12-07T16:17:31.042Z,0.80
2022-12-07T16:19:58.267Z,0.80
2022-12-07T16:22:25.153Z,0.80
2022-12-07T16:24:52.034Z,0.80
2022-12-07T16:27:18.889Z,0.80
2022-12-07T16:29:46.181Z,0.70
2022-12-07T16:32:13.035Z,0.70
2022-12-07T16:34:40.871Z,0.70
2022-12-07T16:37:07.695Z,0.60
2022-12-07T16:39:35.207Z,0.60
2022-12-07T16:42:02.253Z,0.60
2022-12-07T16:44:29.272Z,0.60
2022-12-07T16:46:56.320Z,0.60
2022-12-07T16:49:24.951Z,0.60
2022-12-07T16:52:14.908Z,0.60
2022-12-07T16:54:39.404Z,0.50
2022-12-07T16:57:06.245Z,0.50
2022-12-07T16:59:33.121Z,0.50
2022-12-07T17:01:59.998Z,0.40
2022-12-07T17:04:27.049Z,0.40
2022-12-07T17:06:53.911Z,0.40
2022-12-07T17:09:21.709Z,0.40
2022-12-07T17:11:48.772Z,0.30
2022-12-07T17:14:34.179Z,0.40
2022-12-07T17:17:01.173Z,0.30
2022-12-07T17:19:28.156Z,0.20
2022-12-07T17:21:55.058Z,0.10
2022-12-07T17:24:21.910Z,0.20
2022-12-07T17:26:48.785Z,0.10
2022-12-07T17:29:17.876Z,0.10
2022-12-07T17:31:50.845Z,0.10
2022-12-07T17:34:19.059Z,0.10
2022-12-07T17:36:46.334Z,0.10
2022-12-07T17:39:16.548Z,0.10
2022-12-07T17:42:02.516Z,0.10
2022-12-07T17:44:29.893Z,0.10
2022-12-07T17:47:02.278Z,0.00
2022-12-07T17:49:29.509Z,0.10
2022-12-07T17:52:15.398Z,0.00
2022-12-07T17:54:42.323Z,0.00
2022-12-07T17:57:09.179Z,0.00
2022-12-07T17:59:36.030Z,0.00
2022-12-07T18:02:03.396Z,0.10
2022-12-07T18:04:30.319Z,0.10
2022-12-07T18:06:57.196Z,0.10
2022-12-07T18:09:24.256Z,0.10
2022-12-07T18:11:51.328Z,0.10
2022-12-07T18:14:18.177Z,0.20
2022-12-07T18:16:45.265Z,0.20
2022-12-07T18:19:17.168Z,0.20
2022-12-07T18:21:44.701Z,0.20
2022-12-07T18:24:14.037Z,0.20
2022-12-07T18:26:41.795Z,0.20
2022-12-07T18:29:10.655Z,0.20
2022-12-07T18:31:37.550Z,0.20
2022-12-07T18:34:11.991Z,0.20
2022-12-07T18:36:42.194Z,0.30
2022-12-07T18:39:09.517Z,0.30
2022-12-07T18:41:36.362Z,0.40
2022-12-07T18:44:05.140Z,0.20
2022-12-07T18:46:33.159Z,0.20
2022-12-07T18:49:00.686Z,0.10
2022-12-07T18:51:32.337Z,0.20
2022-12-07T18:54:01.134Z,0.20
2022-12-07T18:56:28.530Z,0.20
2022-12-07T18:59:19.595Z,0.20
2022-12-07T19:01:50.119Z,0.20
2022-12-07T19:04:17.814Z,0.30
2022-12-07T19:06:46.458Z,0.30
2022-12-07T19:09:13.601Z,0.30
2022-12-07T19:11:49.996Z,0.30
2022-12-07T19:14:23.041Z,0.20
2022-12-07T19:16:53.942Z,0.30
2022-12-07T19:19:22.928Z,0.30
2022-12-07T19:21:50.387Z,0.30
2022-12-07T19:24:23.186Z,0.20
2022-12-07T19:26:51.201Z,0.10
2022-12-07T19:29:18.035Z,0.20
2022-12-07T19:31:45.154Z,0.20
2022-12-07T19:34:16.043Z,0.20
2022-12-07T19:36:43.665Z,0.20
2022-12-07T19:39:14.733Z,0.30
2022-12-07T19:41:43.918Z,0.20
2022-12-07T19:44:14.370Z,0.20
2022-12-07T19:46:42.434Z,0.20
2022-12-07T19:49:09.689Z,0.30
2022-12-07T19:51:36.608Z,0.20
2022-12-07T19:54:03.633Z,0.10
2022-12-07T19:56:31.020Z,0.10
2022-12-07T19:59:00.137Z,0.10
2022-12-07T20:01:27.666Z,0.10
2022-12-07T20:03:55.097Z,0.10
2022-12-07T20:06:23.360Z,0.10
2022-12-07T20:08:50.271Z,0.30
2022-12-07T20:11:37.749Z,0.20
2022-12-07T20:14:09.096Z,0.30
2022-12-07T20:16:36.927Z,0.40
2022-12-07T20:19:04.087Z,0.40
2022-12-07T20:21:31.094Z,0.40
2022-12-07T20:24:04.073Z,0.40
2022-12-07T20:26:31.046Z,0.50
2022-12-07T20:28:59.978Z,0.50
2022-12-07T20:31:28.822Z,0.40
2022-12-07T20:33:57.394Z,0.40
2022-12-07T20:36:26.986Z,0.50
2022-12-07T20:38:58.509Z,0.40
2022-12-07T20:41:43.880Z,0.40
2022-12-07T20:44:11.071Z,0.40
2022-12-07T20:46:37.913Z,0.50
2022-12-07T20:49:04.815Z,0.40
2022-12-07T20:51:31.704Z,0.40
2022-12-07T20:53:58.825Z,0.50
2022-12-07T20:56:28.663Z,0.40
2022-12-07T20:58:57.563Z,0.40
2022-12-07T21:01:25.311Z,0.40
2022-12-07T21:03:57.640Z,0.40
2022-12-07T21:06:25.209Z,0.50
2022-12-07T21:08:54.376Z,0.50
2022-12-07T21:11:22.185Z,0.60
2022-12-07T21:13:49.198Z,0.60
2022-12-07T21:16:19.103Z,0.60
2022-12-07T21:18:47.980Z,0.50
2022-12-07T21:21:19.191Z,0.60
2022-12-07T21:23:48.062Z,0.60
2022-12-07T21:26:20.068Z,0.60
2022-12-07T21:28:47.566Z,0.60
2022-12-07T21:31:15.405Z,0.50
2022-12-07T21:33:45.241Z,0.50
2022-12-07T21:36:18.012Z,0.60
2022-12-07T21:38:45.104Z,0.60
2022-12-07T21:41:20.283Z,0.60
2022-12-07T21:43:48.007Z,0.70
2022-12-07T21:46:16.654Z,0.70
2022-12-07T21:48:44.031Z,0.80
2022-12-07T21:51:12.961Z,1.00
2022-12-07T21:53:42.069Z,0.80
2022-12-07T21:56:30.027Z,0.80
2022-12-07T21:59:17.834Z,0.70
2022-12-07T22:01:47.314Z,0.70
2022-12-07T22:04:22.911Z,0.60
2022-12-07T22:06:50.029Z,0.80
2022-12-07T22:09:18.872Z,0.70
2022-12-07T22:11:46.388Z,0.60
2022-12-07T22:14:31.655Z,0.60
2022-12-07T22:16:58.740Z,0.60
2022-12-07T22:19:26.324Z,0.70
2022-12-07T22:21:53.137Z,0.80
2022-12-07T22:24:20.155Z,0.80
2022-12-07T22:26:47.402Z,0.90
2022-12-07T22:29:14.223Z,0.90
2022-12-07T22:31:41.301Z,0.80
2022-12-07T22:34:14.062Z,0.80
2022-12-07T22:36:40.904Z,0.90
2022-12-07T22:39:09.729Z,1.10
2022-12-07T22:41:36.629Z,1.10
2022-12-07T22:44:06.326Z,1.20
2022-12-07T22:46:33.965Z,1.10
2022-12-07T22:49:01.735Z,1.10
2022-12-07T22:51:31.419Z,1.10
2022-12-07T22:53:59.938Z,1.10
2022-12-07T22:56:28.254Z,1.10
2022-12-07T22:58:55.504Z,1.00
2022-12-07T23:01:23.539Z,1.00
2022-12-07T23:03:51.052Z,0.90
2022-12-07T23:06:29.840Z,1.00
2022-12-07T23:08:57.796Z,1.00
2022-12-07T23:11:45.635Z,1.20
2022-12-07T23:14:15.193Z,1.20
2022-12-07T23:16:42.674Z,1.30
2022-12-07T23:19:09.856Z,1.60
2022-12-07T23:21:36.744Z,1.60
2022-12-07T23:24:03.720Z,1.70
2022-12-07T23:26:30.487Z,1.60
2022-12-07T23:28:58.357Z,1.60
2022-12-07T23:31:25.747Z,1.70
2022-12-07T23:33:53.180Z,1.90
2022-12-07T23:36:27.934Z,1.70
2022-12-07T23:38:57.258Z,1.80
2022-12-07T23:41:27.390Z,1.80
2022-12-07T23:43:56.189Z,1.70
2022-12-07T23:46:26.178Z,1.70
2022-12-07T23:48:54.727Z,1.80
2022-12-07T23:51:22.433Z,1.60
2022-12-07T23:53:51.131Z,1.60
2022-12-07T23:56:20.526Z,1.60
2022-12-07T23:58:48.846Z,1.50
